Time;durP1;ratioP1;P1;durP2;ratioP2;P2;SDS_P1;SDS_P2;PMS_P1;PMS_P2;Temp;Humidity;BMP_temperature;BMP_pressure;BME280_temperature;BME280_humidity;BME280_pressure;Samples;Min_cycle;Max_cycle;Signal;HPM_P1;HPM_P2
2020/12/11 00:00:42;;;;;;;27.67;18.73;;;;;;;;;;4980382;28;20734;-78
2020/12/11 00:03:08;;;;;;;25.63;18.27;;;;;;;;;;4981391;28;20663;-79
2020/12/11 00:05:34;;;;;;;27.20;18.87;;;;;;;;;;4980374;28;20180;-79
2020/12/11 00:08:00;;;;;;;26.20;19.00;;;;;;;;;;4981800;28;20184;-79
2020/12/11 00:10:28;;;;;;;23.47;17.47;;;;;;;;;;4981953;28;20211;-79
2020/12/11 00:12:54;;;;;;;27.77;19.47;;;;;;;;;;4981289;28;20207;-79
2020/12/11 00:15:20;;;;;;;29.03;18.00;;;;;;;;;;4980735;28;20189;-79
2020/12/11 00:17:47;;;;;;;25.97;18.33;;;;;;;;;;4981227;28;20616;-78
2020/12/11 00:20:13;;;;;;;24.97;17.67;;;;;;;;;;4980001;28;20247;-79
2020/12/11 00:22:40;;;;;;;25.43;18.33;;;;;;;;;;4979974;28;20642;-79
2020/12/11 00:25:07;;;;;;;28.70;18.90;;;;;;;;;;4970720;28;20208;-79
2020/12/11 00:27:33;;;;;;;29.83;18.70;;;;;;;;;;4979841;28;20654;-79
2020/12/11 00:29:59;;;;;;;25.67;17.37;;;;;;;;;;4979254;28;20239;-79
2020/12/11 00:32:27;;;;;;;28.77;18.40;;;;;;;;;;4978615;28;20188;-79
2020/12/11 00:34:53;;;;;;;30.83;20.27;;;;;;;;;;4978894;28;20196;-78
2020/12/11 00:37:19;;;;;;;26.63;18.83;;;;;;;;;;4979408;28;20190;-79
2020/12/11 00:39:46;;;;;;;25.07;17.63;;;;;;;;;;4978435;28;20269;-79
2020/12/11 00:42:12;;;;;;;25.73;18.60;;;;;;;;;;4977920;28;20200;-79
2020/12/11 00:44:38;;;;;;;25.70;18.00;;;;;;;;;;4977954;28;20631;-78
2020/12/11 00:47:04;;;;;;;27.57;17.87;;;;;;;;;;4979520;28;20192;-78
2020/12/11 00:49:31;;;;;;;27.00;16.73;;;;;;;;;;4978218;28;20239;-79
2020/12/11 00:51:57;;;;;;;27.37;18.10;;;;;;;;;;4979890;28;20637;-79
2020/12/11 00:54:23;;;;;;;24.67;16.80;;;;;;;;;;4978009;28;20200;-78
2020/12/11 00:56:49;;;;;;;25.80;17.03;;;;;;;;;;4978514;28;20184;-78
2020/12/11 00:59:16;;;;;;;26.27;17.87;;;;;;;;;;4978333;28;20200;-79
2020/12/11 01:01:42;;;;;;;27.00;18.07;;;;;;;;;;4979742;28;20177;-79
2020/12/11 01:04:08;;;;;;;25.33;17.53;;;;;;;;;;4982676;28;20211;-78
2020/12/11 01:06:34;;;;;;;25.00;17.50;;;;;;;;;;4983680;28;20180;-78
2020/12/11 01:09:00;;;;;;;22.67;16.20;;;;;;;;;;4982813;28;20203;-79
2020/12/11 01:11:26;;;;;;;24.97;17.33;;;;;;;;;;4983437;28;20247;-79
2020/12/11 01:13:52;;;;;;;22.27;16.13;;;;;;;;;;4983400;28;20191;-79
2020/12/11 01:16:18;;;;;;;23.60;16.67;;;;;;;;;;4983439;28;20206;-79
2020/12/11 01:18:45;;;;;;;22.03;15.33;;;;;;;;;;4982001;28;20200;-79
2020/12/11 01:21:11;;;;;;;21.23;15.53;;;;;;;;;;4973578;28;20233;-79
2020/12/11 01:23:37;;;;;;;22.20;15.90;;;;;;;;;;4980104;28;20190;-79
2020/12/11 01:26:03;;;;;;;23.30;17.27;;;;;;;;;;4973846;28;20299;-79
2020/12/11 01:28:29;;;;;;;20.27;15.43;;;;;;;;;;4983157;28;20207;-79
2020/12/11 01:30:55;;;;;;;20.87;15.73;;;;;;;;;;4982204;28;20635;-79
2020/12/11 01:33:21;;;;;;;22.83;16.87;;;;;;;;;;4983221;28;20173;-79
2020/12/11 01:35:47;;;;;;;27.87;17.13;;;;;;;;;;4983435;28;20196;-79
2020/12/11 01:38:14;;;;;;;26.00;17.23;;;;;;;;;;4983227;28;20204;-79
2020/12/11 01:40:40;;;;;;;22.60;15.67;;;;;;;;;;4968244;28;20201;-79
2020/12/11 01:43:06;;;;;;;25.50;17.63;;;;;;;;;;4981939;28;20228;-79
2020/12/11 01:45:33;;;;;;;24.00;16.50;;;;;;;;;;4983985;28;20193;-79
2020/12/11 01:47:59;;;;;;;22.97;17.17;;;;;;;;;;4984234;28;20245;-79
2020/12/11 01:50:25;;;;;;;24.37;17.60;;;;;;;;;;4983646;28;20212;-79
2020/12/11 01:52:52;;;;;;;26.60;17.47;;;;;;;;;;4984872;28;20193;-78
2020/12/11 01:55:18;;;;;;;20.40;16.43;;;;;;;;;;4983531;28;20567;-79
2020/12/11 01:57:54;;;;;;;22.10;16.30;;;;;;;;;;4983575;28;20192;-79
2020/12/11 02:00:21;;;;;;;21.80;16.47;;;;;;;;;;4982290;28;20199;-78
2020/12/11 02:02:47;;;;;;;24.70;17.00;;;;;;;;;;4983541;28;20207;-79
2020/12/11 02:05:14;;;;;;;22.37;16.63;;;;;;;;;;4983714;28;20185;-79
2020/12/11 02:07:41;;;;;;;24.37;17.37;;;;;;;;;;4983364;28;20184;-79
2020/12/11 02:10:08;;;;;;;22.57;17.47;;;;;;;;;;4981618;28;20315;-79
2020/12/11 02:12:34;;;;;;;24.03;17.90;;;;;;;;;;4981920;28;20188;-79
2020/12/11 02:15:01;;;;;;;25.63;17.87;;;;;;;;;;4981738;28;20239;-79
2020/12/11 02:17:27;;;;;;;23.53;17.17;;;;;;;;;;4980256;28;20183;-79
2020/12/11 02:19:56;;;;;;;24.50;17.70;;;;;;;;;;4981404;28;20236;-79
2020/12/11 02:22:23;;;;;;;23.60;17.40;;;;;;;;;;4981021;28;20207;-79
2020/12/11 02:24:50;;;;;;;22.60;16.70;;;;;;;;;;4975003;28;20181;-79
2020/12/11 02:27:16;;;;;;;22.03;16.13;;;;;;;;;;4980181;28;20176;-79
2020/12/11 02:29:43;;;;;;;21.30;16.47;;;;;;;;;;4970291;28;20575;-79
2020/12/11 02:32:10;;;;;;;22.53;17.47;;;;;;;;;;4951315;28;20185;-79
2020/12/11 02:34:36;;;;;;;21.03;16.10;;;;;;;;;;4943509;28;20194;-78
2020/12/11 02:37:03;;;;;;;23.10;17.13;;;;;;;;;;4944019;28;20233;-79
2020/12/11 02:39:29;;;;;;;21.77;17.37;;;;;;;;;;4960089;28;20211;-79
2020/12/11 02:41:55;;;;;;;20.30;16.30;;;;;;;;;;4959662;28;20238;-79
2020/12/11 02:44:22;;;;;;;22.53;17.03;;;;;;;;;;4981211;28;20195;-79
2020/12/11 02:46:48;;;;;;;20.57;16.40;;;;;;;;;;4979733;28;20188;-78
2020/12/11 02:49:14;;;;;;;24.20;17.33;;;;;;;;;;4972925;28;20297;-79
2020/12/11 02:51:40;;;;;;;22.43;16.33;;;;;;;;;;4979564;28;20590;-79
2020/12/11 02:54:06;;;;;;;24.87;17.60;;;;;;;;;;4980548;28;20199;-79
2020/12/11 02:56:33;;;;;;;24.30;17.73;;;;;;;;;;4979759;28;20219;-79
2020/12/11 02:58:59;;;;;;;26.67;18.77;;;;;;;;;;4977573;28;20203;-79
2020/12/11 03:01:25;;;;;;;23.90;17.47;;;;;;;;;;4979057;28;20550;-79
2020/12/11 03:03:54;;;;;;;24.47;16.87;;;;;;;;;;4977974;28;20740;-79
2020/12/11 03:06:25;;;;;;;22.53;17.17;;;;;;;;;;4943564;28;20186;-80
2020/12/11 03:08:51;;;;;;;22.47;17.10;;;;;;;;;;4948941;28;20564;-79
2020/12/11 03:11:17;;;;;;;22.37;16.90;;;;;;;;;;4943543;28;20552;-79
2020/12/11 03:13:45;;;;;;;25.00;17.57;;;;;;;;;;4946469;28;20696;-79
2020/12/11 03:16:11;;;;;;;22.03;17.53;;;;;;;;;;4941834;28;20201;-80
2020/12/11 03:18:37;;;;;;;22.80;17.30;;;;;;;;;;4953649;28;20236;-79
2020/12/11 03:21:03;;;;;;;24.63;17.30;;;;;;;;;;4940131;28;20186;-78
2020/12/11 03:23:30;;;;;;;26.57;18.77;;;;;;;;;;4940576;28;20284;-79
2020/12/11 03:25:56;;;;;;;23.77;18.03;;;;;;;;;;4948339;28;20228;-79
2020/12/11 03:28:22;;;;;;;23.27;17.33;;;;;;;;;;4960121;28;20208;-78
2020/12/11 03:30:48;;;;;;;21.73;16.37;;;;;;;;;;4963646;28;20203;-78
2020/12/11 03:33:14;;;;;;;24.40;17.43;;;;;;;;;;4961854;28;20185;-78
2020/12/11 03:35:41;;;;;;;25.67;18.07;;;;;;;;;;4963748;28;20222;-79
2020/12/11 03:38:07;;;;;;;24.50;17.37;;;;;;;;;;4967074;28;20267;-79
2020/12/11 03:40:33;;;;;;;26.00;18.33;;;;;;;;;;4976169;28;20228;-79
2020/12/11 03:42:59;;;;;;;22.30;17.20;;;;;;;;;;4978439;28;20187;-79
2020/12/11 03:45:25;;;;;;;26.17;16.30;;;;;;;;;;4977051;28;20186;-79
2020/12/11 03:47:51;;;;;;;24.30;17.33;;;;;;;;;;4977996;28;20188;-78
2020/12/11 03:50:17;;;;;;;25.07;18.17;;;;;;;;;;4977931;28;20224;-78
2020/12/11 03:52:43;;;;;;;22.27;17.50;;;;;;;;;;4977968;28;20199;-79
2020/12/11 03:55:09;;;;;;;23.50;17.30;;;;;;;;;;4977535;28;20659;-78
2020/12/11 03:57:35;;;;;;;25.37;18.00;;;;;;;;;;4977148;28;20270;-79
2020/12/11 04:00:01;;;;;;;26.33;17.67;;;;;;;;;;4977951;28;20251;-79
2020/12/11 04:02:27;;;;;;;24.63;18.23;;;;;;;;;;4978569;28;20568;-79
2020/12/11 04:04:53;;;;;;;24.37;18.20;;;;;;;;;;4981996;28;20244;-79
2020/12/11 04:07:19;;;;;;;27.87;18.80;;;;;;;;;;4980623;28;20176;-80
2020/12/11 04:09:45;;;;;;;26.47;19.23;;;;;;;;;;4976310;28;20200;-79
2020/12/11 04:12:11;;;;;;;25.50;18.33;;;;;;;;;;4977179;28;20184;-80
2020/12/11 04:14:38;;;;;;;23.90;17.43;;;;;;;;;;4977658;28;20212;-79
2020/12/11 04:17:04;;;;;;;21.47;17.17;;;;;;;;;;4970613;28;20189;-79
2020/12/11 04:19:30;;;;;;;23.67;16.73;;;;;;;;;;4942795;28;20256;-79
2020/12/11 04:21:56;;;;;;;21.77;16.90;;;;;;;;;;4959557;28;20196;-79
2020/12/11 04:24:23;;;;;;;25.83;17.80;;;;;;;;;;4964114;28;20695;-79
2020/12/11 04:26:49;;;;;;;21.17;16.57;;;;;;;;;;4963880;28;20678;-79
2020/12/11 04:29:16;;;;;;;26.73;18.30;;;;;;;;;;4977056;28;20200;-79
2020/12/11 04:31:43;;;;;;;25.60;17.43;;;;;;;;;;4977401;28;20359;-79
2020/12/11 04:34:09;;;;;;;26.40;18.37;;;;;;;;;;4977402;28;20180;-79
2020/12/11 04:36:35;;;;;;;23.23;16.70;;;;;;;;;;4973525;28;20570;-79
2020/12/11 04:39:02;;;;;;;25.50;18.50;;;;;;;;;;4977034;28;20232;-78
2020/12/11 04:41:29;;;;;;;26.40;19.20;;;;;;;;;;4977710;28;20270;-79
2020/12/11 04:43:56;;;;;;;28.67;19.40;;;;;;;;;;4977156;28;20263;-79
2020/12/11 04:46:29;;;;;;;24.50;17.53;;;;;;;;;;4970608;28;20618;-79
2020/12/11 04:48:56;;;;;;;27.30;18.63;;;;;;;;;;4977349;28;20212;-78
2020/12/11 04:51:25;;;;;;;25.70;19.33;;;;;;;;;;4976232;28;20203;-79
2020/12/11 04:53:53;;;;;;;29.10;18.10;;;;;;;;;;4977185;28;20604;-79
2020/12/11 04:56:21;;;;;;;28.60;19.07;;;;;;;;;;4967588;28;20236;-79
2020/12/11 04:58:50;;;;;;;24.70;18.50;;;;;;;;;;4966320;28;20247;-78
2020/12/11 05:01:26;;;;;;;25.70;18.27;;;;;;;;;;4966795;28;20706;-78
2020/12/11 05:03:54;;;;;;;28.37;19.17;;;;;;;;;;4975782;28;20601;-79
2020/12/11 05:06:20;;;;;;;26.77;18.90;;;;;;;;;;4964295;28;20189;-79
2020/12/11 05:08:47;;;;;;;26.23;19.10;;;;;;;;;;4966821;28;20222;-78
2020/12/11 05:11:29;;;;;;;26.07;18.33;;;;;;;;;;4976266;28;20187;-78
2020/12/11 05:13:55;;;;;;;24.40;17.83;;;;;;;;;;4964580;28;20181;-78
2020/12/11 05:16:21;;;;;;;30.47;19.07;;;;;;;;;;4975823;28;20189;-78
2020/12/11 05:18:48;;;;;;;23.70;17.43;;;;;;;;;;4977149;28;20527;-79
2020/12/11 05:21:18;;;;;;;24.83;17.87;;;;;;;;;;4966569;28;20514;-78
2020/12/11 05:24:14;;;;;;;26.50;18.20;;;;;;;;;;4960395;28;20180;-79
2020/12/11 05:26:40;;;;;;;29.33;19.90;;;;;;;;;;4951931;28;20193;-78
2020/12/11 05:29:06;;;;;;;25.83;18.27;;;;;;;;;;4957781;28;20205;-79
2020/12/11 05:31:32;;;;;;;33.67;23.17;;;;;;;;;;4957576;28;20193;-78
2020/12/11 05:34:08;;;;;;;30.50;20.20;;;;;;;;;;4963444;28;20242;-78
2020/12/11 05:36:51;;;;;;;27.17;19.70;;;;;;;;;;4975433;28;20194;-79
2020/12/11 05:39:19;;;;;;;26.27;19.07;;;;;;;;;;4976717;28;20203;-78
2020/12/11 05:41:45;;;;;;;26.83;19.20;;;;;;;;;;4962111;28;20602;-78
2020/12/11 05:44:27;;;;;;;23.03;18.47;;;;;;;;;;4960050;28;20184;-79
2020/12/11 05:46:54;;;;;;;29.47;18.63;;;;;;;;;;4977538;28;20228;-78
2020/12/11 05:49:25;;;;;;;27.57;19.10;;;;;;;;;;4978623;28;20644;-79
2020/12/11 05:51:55;;;;;;;26.30;18.53;;;;;;;;;;4969516;28;20185;-83
2020/12/11 05:56:59;;;;;;;27.67;19.43;;;;;;;;;;4975756;23;20232;-79
2020/12/11 05:59:29;;;;;;;29.07;19.77;;;;;;;;;;4962902;28;20220;-79
2020/12/11 06:01:56;;;;;;;29.50;19.60;;;;;;;;;;4981927;28;20184;-79
2020/12/11 06:04:25;;;;;;;26.43;19.13;;;;;;;;;;4963719;28;20177;-78
2020/12/11 06:07:04;;;;;;;;;;;;;;;;;;;;;
2020/12/11 06:09:37;;;;;;;25.83;19.27;;;;;;;;;;4968721;28;20228;-79
2020/12/11 06:12:07;;;;;;;28.47;19.20;;;;;;;;;;4974460;28;20196;-79
2020/12/11 06:14:39;;;;;;;28.13;19.40;;;;;;;;;;4981302;28;20207;-79
2020/12/11 06:17:08;;;;;;;29.70;19.20;;;;;;;;;;4974157;28;20253;-80
2020/12/11 06:19:38;;;;;;;30.10;20.00;;;;;;;;;;4984843;28;20230;-79
2020/12/11 06:22:07;;;;;;;29.40;19.70;;;;;;;;;;4986043;28;20670;-78
2020/12/11 06:24:37;;;;;;;30.83;20.10;;;;;;;;;;4985647;28;20184;-79
2020/12/11 06:27:04;;;;;;;28.50;19.00;;;;;;;;;;4985088;28;20192;-79
2020/12/11 06:29:34;;;;;;;27.57;19.80;;;;;;;;;;4985050;28;20190;-80
2020/12/11 06:32:00;;;;;;;28.57;20.40;;;;;;;;;;4983779;28;20191;-80
2020/12/11 06:34:34;;;;;;;32.70;21.40;;;;;;;;;;4985102;28;20211;-79
2020/12/11 06:37:00;;;;;;;28.33;19.80;;;;;;;;;;4969413;28;20555;-79
2020/12/11 06:39:41;;;;;;;28.63;20.47;;;;;;;;;;4987128;28;20184;-79
2020/12/11 06:42:09;;;;;;;28.17;19.73;;;;;;;;;;4987230;28;20192;-80
2020/12/11 06:44:36;;;;;;;30.93;20.83;;;;;;;;;;4986621;28;20208;-79
2020/12/11 06:47:07;;;;;;;31.63;21.73;;;;;;;;;;4973187;28;20188;-81
2020/12/11 06:49:33;;;;;;;37.10;23.37;;;;;;;;;;4989518;28;20180;-80
2020/12/11 06:51:58;;;;;;;32.47;22.27;;;2.30;99.90;;;;;;4976289;28;20641;-80
2020/12/11 06:54:24;;;;;;;114.73;52.17;;;0.10;99.90;;;;;;4988932;28;20203;-80
2020/12/11 06:56:59;;;;;;;37.10;22.70;;;0.10;99.90;;;;;;4987667;28;20234;-79
2020/12/11 06:59:27;;;;;;;33.90;22.67;;;;;;;;;;4988112;28;20176;-79
2020/12/11 07:01:53;;;;;;;36.57;23.57;;;;;;;;;;4987127;28;20208;-79
2020/12/11 07:04:23;;;;;;;35.57;22.87;;;;;;;;;;4987627;28;20187;-80
2020/12/11 07:06:50;;;;;;;30.40;20.63;;;;;;;;;;4992155;28;20204;-80
2020/12/11 07:09:17;;;;;;;35.70;23.47;;;;;;;;;;4990854;28;20180;-81
2020/12/11 07:11:43;;;;;;;41.63;26.13;;;;;;;;;;4973039;28;20256;-78
2020/12/11 07:14:13;;;;;;;29.63;21.33;;;;;;;;;;4988899;28;20211;-78
2020/12/11 07:16:39;;;;;;;28.47;20.50;;;;;;;;;;4988032;28;20228;-79
2020/12/11 07:19:06;;;;;;;29.63;20.57;;;;;;;;;;4988280;28;20180;-80
2020/12/11 07:21:33;;;;;;;30.80;21.10;;;;;;;;;;4990122;28;20184;-79
2020/12/11 07:23:59;;;;;;;38.67;22.90;;;;;;;;;;4982632;28;20179;-79
2020/12/11 07:26:25;;;;;;;37.37;23.40;;;;;;;;;;4986187;28;20204;-79
2020/12/11 07:29:11;;;;;;;45.70;24.00;;;;;;;;;;4988300;28;20188;-79
2020/12/11 07:31:44;;;;;;;39.43;23.37;;;;;;;;;;4988631;28;20180;-79
2020/12/11 07:34:18;;;;;;;32.70;22.63;;;;;;;;;;4986131;28;20191;-78
2020/12/11 07:36:54;;;;;;;33.37;21.60;;;;;;;;;;4986264;28;20207;-78
2020/12/11 07:39:21;;;;;;;34.37;22.50;;;;;;;;;;4973798;28;20238;-79
2020/12/11 07:41:48;;;;;;;32.43;21.10;;;;;;;;;;4969285;28;20179;-79
2020/12/11 07:44:22;;;;;;;35.63;21.97;;;;;;;;;;4979217;28;20193;-79
2020/12/11 07:46:48;;;;;;;38.60;23.30;;;;;;;;;;4973063;28;20199;-79
2020/12/11 07:49:14;;;;;;;39.43;23.63;;;;;;;;;;4988825;28;20179;-78
2020/12/11 07:51:45;;;;;;;37.10;23.20;;;;;;;;;;4978412;28;20209;-79
2020/12/11 07:54:11;;;;;;;36.47;22.83;;;;;;;;;;4985694;28;20183;-79
2020/12/11 07:56:37;;;;;;;36.73;23.03;;;;;;;;;;4985214;28;20587;-78
2020/12/11 07:59:10;;;;;;;34.30;22.43;;;;;;;;;;4966348;28;20200;-79
2020/12/11 08:01:36;;;;;;;33.43;21.83;;;;;;;;;;4979128;28;20578;-79
2020/12/11 08:04:03;;;;;;;35.97;22.47;;;;;;;;;;4981000;28;20244;-79
2020/12/11 08:06:29;;;;;;;34.17;22.67;;;;;;;;;;4972652;28;20287;-79
2020/12/11 08:08:55;;;;;;;38.03;22.97;;;;;;;;;;4984711;28;20207;-79
2020/12/11 08:11:36;;;;;;;;;;;;;;;;;;;;;
2020/12/11 08:14:02;;;;;;;34.30;22.27;;;;;;;;;;4984002;28;20255;-78
2020/12/11 08:16:29;;;;;;;38.43;22.67;;;;;;;;;;4983792;28;20207;-78
2020/12/11 08:18:56;;;;;;;38.33;22.20;;;;;;;;;;4981225;28;20192;-79
2020/12/11 08:21:31;;;;;;;33.50;21.63;;;;;;;;;;4982746;28;20189;-79
2020/12/11 08:23:58;;;;;;;33.47;21.73;;;;;;;;;;4983243;28;20274;-79
2020/12/11 08:26:25;;;;;;;34.40;23.27;;;;;;;;;;4985727;28;20201;-79
2020/12/11 08:29:03;;;;;;;34.43;22.53;;;;;;;;;;4985527;28;20184;-79
2020/12/11 08:31:31;;;;;;;33.40;22.40;;;;;;;;;;4982426;28;20260;-79
2020/12/11 08:34:01;;;;;;;33.97;22.37;;;;;;;;;;4981064;28;20640;-79
2020/12/11 08:36:29;;;;;;;35.07;23.33;;;;;;;;;;4981817;28;20220;-78
2020/12/11 08:39:04;;;;;;;31.80;22.13;;;;;;;;;;4983405;28;20188;-79
2020/12/11 08:41:31;;;;;;;32.17;21.37;;;;;;;;;;4981755;28;20180;-78
2020/12/11 08:43:58;;;;;;;33.90;22.87;;;;;;;;;;4980754;28;20180;-79
2020/12/11 08:46:57;;;;;;;34.97;22.63;;;;;;;;;;4982125;28;20202;-79
2020/12/11 08:49:30;;;;;;;36.17;22.80;;;;;;;;;;4982164;28;20523;-79
2020/12/11 08:51:56;;;;;;;36.70;23.03;;;;;;;;;;4977578;28;20180;-78
2020/12/11 08:54:42;;;;;;;34.43;22.47;;;;;;;;;;4987360;28;20227;-79
2020/12/11 08:57:31;;;;;;;32.43;21.63;;;;;;;;;;4989625;28;20268;-79
2020/12/11 08:59:57;;;;;;;33.07;22.23;;;;;;;;;;4988759;28;20176;-78
2020/12/11 09:02:43;;;;;;;34.60;21.37;;;;;;;;;;4989967;28;20191;-79
2020/12/11 09:05:09;;;;;;;33.23;21.67;;;;;;;;;;4990454;28;20250;-78
2020/12/11 09:07:56;;;;;;;31.33;21.60;;;;;;;;;;4988992;28;20183;-78
2020/12/11 09:10:22;;;;;;;35.70;22.70;;;;;;;;;;4967646;28;20679;-79
2020/12/11 09:13:08;;;;;;;35.30;22.57;;;;;;;;;;4983860;28;20625;-78
2020/12/11 09:15:54;;;;;;;33.30;21.87;;;;;;;;;;4984583;28;20223;-78
2020/12/11 09:18:20;;;;;;;30.17;21.43;;;;;;;;;;4985823;28;20212;-79
2020/12/11 09:20:47;;;;;;;36.33;24.20;;;;;;;;;;4989908;28;20191;-78
2020/12/11 09:23:13;;;;;;;32.57;21.37;;;;;;;;;;4987736;28;20180;-79
2020/12/11 09:25:39;;;;;;;34.97;22.30;;;;;;;;;;4989858;28;20204;-79
2020/12/11 09:28:11;;;;;;;34.63;21.63;;;;;;;;;;4988012;28;20188;-79
2020/12/11 09:30:38;;;;;;;34.03;22.57;;;;;;;;;;4987253;28;20184;-79
2020/12/11 09:35:34;;;;;;;35.30;21.57;;;;;;;;;;4988440;28;20215;-79
2020/12/11 09:38:00;;;;;;;35.43;22.77;;;;;;;;;;4985393;28;20195;-79
2020/12/11 09:48:51;;;;;;;39.80;23.33;;;;;;;;;;4984394;28;20252;-78
2020/12/11 09:54:15;;;;;;;38.87;22.73;;;;;;;;;;4969940;28;20192;-78
2020/12/11 09:56:41;;;;;;;36.00;21.07;;;;;;;;;;4984100;28;20216;-78
2020/12/11 10:04:20;;;;;;;36.43;22.07;;;;;;;;;;4986224;28;20168;-79
2020/12/11 10:06:47;;;;;;;38.60;22.50;;;;;;;;;;4984513;28;20215;-79
2020/12/11 10:09:13;;;;;;;36.40;21.87;;;;;;;;;;4987527;28;20184;-79
2020/12/11 10:11:39;;;;;;;33.80;22.13;;;;;;;;;;4988972;28;20195;-79
2020/12/11 10:16:35;;;;;;;34.40;22.63;;;;;;;;;;4988757;28;20575;-79
2020/12/11 10:19:01;;;;;;;33.90;21.27;;;;;;;;;;4988565;28;20209;-79
2020/12/11 10:21:29;;;;;;;33.10;20.73;;;;;;;;;;4987945;28;20607;-78
2020/12/11 10:23:55;;;;;;;35.70;22.03;;;;;;;;;;4985902;28;20330;-79
2020/12/11 10:26:22;;;;;;;35.30;22.63;;;;;;;;;;4986737;28;20258;-79
2020/12/11 10:28:48;;;;;;;32.07;20.77;;;;;;;;;;4986011;28;20199;-79
2020/12/11 10:31:15;;;;;;;33.13;20.77;;;;;;;;;;4987371;28;20176;-80
2020/12/11 10:33:41;;;;;;;34.83;22.23;;;;;;;;;;4986387;28;20184;-79
2020/12/11 10:36:08;;;;;;;35.63;20.70;;;;;;;;;;4985834;28;20227;-78
2020/12/11 10:38:34;;;;;;;32.40;20.77;;;;;;;;;;4985976;28;20186;-79
2020/12/11 10:41:00;;;;;;;31.80;19.97;;;;;;;;;;4986048;28;20221;-78
2020/12/11 10:43:27;;;;;;;35.37;22.07;;;;;;;;;;4986174;28;20308;-79
2020/12/11 10:45:56;;;;;;;38.73;23.37;;;;;;;;;;4984530;28;20212;-79
2020/12/11 10:48:23;;;;;;;40.07;23.50;;;;;;;;;;4987209;28;20191;-79
2020/12/11 10:50:49;;;;;;;38.07;23.07;;;;;;;;;;4983624;28;20196;-79
2020/12/11 10:53:15;;;;;;;35.93;22.17;;;;;;;;;;4980109;28;20279;-79
2020/12/11 10:55:41;;;;;;;33.93;22.13;;;;;;;;;;4983057;28;20260;-78
2020/12/11 10:58:08;;;;;;;34.30;20.47;;;;;;;;;;4982819;28;20188;-79
2020/12/11 11:00:34;;;;;;;37.23;23.33;;;;;;;;;;4982784;28;20192;-78
2020/12/11 11:03:00;;;;;;;36.23;21.97;;;;;;;;;;4982802;28;20267;-78
2020/12/11 11:05:27;;;;;;;32.80;21.17;;;;;;;;;;4979890;28;20222;-78
2020/12/11 11:07:53;;;;;;;36.00;22.13;;;;;;;;;;4981223;28;20188;-78
2020/12/11 11:11:02;;;;;;;34.37;20.40;;;;;;;;;;4982092;28;20748;-79
2020/12/11 11:13:27;;;;;;;32.70;19.53;;;;;;;;;;4981674;28;20188;-78
2020/12/11 11:15:56;;;;;;;37.20;20.57;;;;;;;;;;4984135;28;20269;-78
2020/12/11 11:21:32;;;;;;;34.80;21.57;;;;;;;;;;4983917;28;20230;-78
2020/12/11 11:24:14;;;;;;;35.57;21.13;;;;;;;;;;4985793;28;20175;-79
2020/12/11 11:29:24;;;;;;;34.50;20.70;;;;;;;;;;4983604;28;20187;-78
2020/12/11 11:31:50;;;;;;;31.03;20.60;;;;;;;;;;4981853;28;20208;-79
2020/12/11 11:34:16;;;;;;;35.63;21.13;;;;;;;;;;4980668;28;20235;-79
2020/12/11 11:36:42;;;;;;;33.67;20.73;;;;;;;;;;4981359;28;20275;-78
2020/12/11 11:39:08;;;;;;;33.00;19.87;;;;;;;;;;4970915;28;20268;-78
2020/12/11 11:41:47;;;;;;;32.73;21.37;;;;;;;;;;4976765;28;20191;-79
2020/12/11 11:46:46;;;;;;;36.80;21.53;;;;;;;;;;4981045;28;20555;-78
2020/12/11 11:49:15;;;;;;;41.60;21.67;;;;;;;;;;4983023;28;20693;-78
2020/12/11 11:52:45;;;;;;;42.47;24.17;;;;;;;;;;4974627;28;20260;-80
2020/12/11 11:54:37;;;;;;;38.53;22.47;;;;;;;;;;4980084;28;20211;-79
2020/12/11 11:57:03;;;;;;;36.13;22.00;;;;;;;;;;4989567;23;20572;-79
2020/12/11 11:59:29;;;;;;;36.47;21.67;;;;;;;;;;4978110;28;20227;-80
2020/12/11 12:01:55;;;;;;;32.63;20.57;;;;;;;;;;4968344;28;20177;-78
2020/12/11 12:04:24;;;;;;;31.50;19.77;;;;;;;;;;4976598;28;20179;-79
2020/12/11 12:06:50;;;;;;;33.97;19.77;;;;;;;;;;4977979;28;20232;-79
2020/12/11 12:09:17;;;;;;;38.27;20.47;;;;;;;;;;4977249;28;20180;-80
2020/12/11 12:11:44;;;;;;;43.17;19.93;;;;;;;;;;4976979;28;20179;-78
2020/12/11 12:14:11;;;;;;;35.13;18.97;;;;;;;;;;4977502;28;20237;-78
2020/12/11 12:16:39;;;;;;;33.37;20.00;;;;;;;;;;4977388;28;20587;-79
2020/12/11 12:19:08;;;;;;;37.83;22.13;;;;;;;;;;4977740;28;20205;-78
2020/12/11 12:27:23;;;;;;;39.40;22.57;;;;;;;;;;4977613;28;20630;-78
2020/12/11 12:29:33;;;;;;;38.23;22.17;;;;;;;;;;4977945;28;20196;-79
2020/12/11 12:32:07;;;;;;;37.63;21.67;;;;;;;;;;4977889;28;20258;-79
2020/12/11 12:34:42;;;;;;;36.67;20.80;;;;;;;;;;4977381;28;20207;-78
2020/12/11 12:40:17;;;;;;;38.40;18.43;;;;;;;;;;4977047;28;20185;-78
2020/12/11 12:45:28;;;;;;;42.10;21.00;;;;;;;;;;4977496;28;20222;-78
2020/12/11 12:47:54;;;;;;;41.70;22.27;;;;;;;;;;4976960;28;20553;-78
2020/12/11 12:50:20;;;;;;;39.30;20.57;;;;;;;;;;4976877;28;20669;-77
2020/12/11 12:52:48;;;;;;;36.47;20.53;;;;;;;;;;4969073;28;20596;-77
2020/12/11 12:55:17;;;;;;;32.37;19.73;;;;;;;;;;4975384;28;20214;-78
2020/12/11 12:57:47;;;;;;;33.93;19.53;;;;;;;;;;4978897;28;20191;-79
2020/12/11 13:00:31;;;;;;;30.23;19.00;;;;;;;;;;4979985;28;20553;-78
2020/12/11 13:05:32;;;;;;;33.90;19.23;;;;;;;;;;4981596;28;20209;-79
2020/12/11 13:08:02;;;;;;;33.90;19.50;;;;;;;;;;4964128;28;20631;-78
2020/12/11 13:10:28;;;;;;;34.23;20.07;;;;;;;;;;4981445;28;20190;-78
2020/12/11 13:12:54;;;;;;;33.33;19.47;;;;;;;;;;4981337;28;20550;-79
2020/12/11 13:15:21;;;;;;;33.33;20.30;;;;;;;;;;4981499;28;20215;-78
2020/12/11 13:17:47;;;;;;;36.00;20.43;;;;;;;;;;4981615;28;20183;-78
2020/12/11 13:20:18;;;;;;;33.73;20.23;;;;;;;;;;4980420;28;20226;-79
2020/12/11 13:25:43;;;;;;;36.97;21.37;;;;;;;;;;4981271;28;20180;-78
2020/12/11 13:28:09;;;;;;;41.50;23.10;;;;;;;;;;4981126;28;20176;-78
2020/12/11 13:30:35;;;;;;;37.97;21.53;;;;;;;;;;4975148;28;20177;-77
2020/12/11 13:33:01;;;;;;;35.50;20.93;;;;;;;;;;4980782;28;20635;-78
2020/12/11 13:35:27;;;;;;;34.90;20.67;;;;;;;;;;4980554;28;20221;-78
2020/12/11 13:37:53;;;;;;;37.73;22.27;;;;;;;;;;4979472;28;20270;-78
2020/12/11 13:40:19;;;;;;;38.13;21.83;;;;;;;;;;4979828;28;20184;-78
2020/12/11 13:42:45;;;;;;;35.60;21.90;;;;;;;;;;4981120;28;20182;-78
2020/12/11 13:45:12;;;;;;;37.63;22.60;;;;;;;;;;4980660;28;20650;-79
2020/12/11 13:47:38;;;;;;;36.70;21.40;;;;;;;;;;4981467;28;20183;-79
2020/12/11 13:50:04;;;;;;;33.73;20.10;;;;;;;;;;4980354;28;20242;-80
2020/12/11 13:52:31;;;;;;;35.83;20.80;;;;;;;;;;4971738;28;20188;-78
2020/12/11 13:54:57;;;;;;;32.83;20.50;;;;;;;;;;4978557;28;20785;-79
2020/12/11 13:57:23;;;;;;;36.60;22.50;;;;;;;;;;4980004;28;20199;-80
2020/12/11 13:59:49;;;;;;;41.83;22.20;;;;;;;;;;4980194;28;20180;-79
2020/12/11 14:02:15;;;;;;;33.93;20.63;;;;;;;;;;4980330;28;20172;-79
2020/12/11 14:04:41;;;;;;;31.27;20.17;;;;;;;;;;4980236;28;20211;-80
2020/12/11 14:07:07;;;;;;;32.47;20.30;;;;;;;;;;4979972;28;20663;-78
2020/12/11 14:09:33;;;;;;;59.87;31.80;;;;;;;;;;4978973;28;20721;-79
2020/12/11 14:12:00;;;;;;;46.73;27.33;;;;;;;;;;4967178;28;20189;-79
2020/12/11 14:14:28;;;;;;;35.60;21.40;;;;;;;;;;4962728;28;20187;-79
2020/12/11 14:16:56;;;;;;;35.23;21.67;;;;;;;;;;4978604;28;20196;-79
2020/12/11 14:22:10;;;;;;;40.30;21.27;;;;;;;;;;4979677;28;20286;-79
2020/12/11 14:24:37;;;;;;;31.60;20.20;;;;;;;;;;4979577;28;20211;-79
2020/12/11 14:27:03;;;;;;;33.03;20.33;;;;;;;;;;4980258;28;20212;-79
2020/12/11 14:29:30;;;;;;;32.80;20.37;;;;;;;;;;4980066;28;20190;-79
2020/12/11 14:31:56;;;;;;;33.43;20.07;;;;;;;;;;4979836;28;20658;-79
2020/12/11 14:34:22;;;;;;;34.93;20.80;;;;;;;;;;4980080;28;20187;-79
2020/12/11 14:36:50;;;;;;;34.10;20.80;;;;;;;;;;4977965;28;20227;-79
2020/12/11 14:39:16;;;;;;;34.13;21.70;;;;;;;;;;4979782;28;20180;-78
2020/12/11 14:41:43;;;;;;;36.80;21.57;;;;;;;;;;4979777;28;20192;-80
2020/12/11 14:44:09;;;;;;;33.13;20.93;;;;;;;;;;4978579;28;20216;-79
2020/12/11 14:46:36;;;;;;;34.37;20.73;;;;;;;;;;4979636;28;20205;-79
2020/12/11 14:49:05;;;;;;;38.50;21.57;;;;;;;;;;4979953;28;20635;-79
2020/12/11 14:51:39;;;;;;;36.03;21.70;;;;;;;;;;4971588;28;20244;-78
2020/12/11 14:54:06;;;;;;;35.10;21.90;;;;;;;;;;4954841;28;20184;-79
2020/12/11 14:56:39;;;;;;;37.27;21.80;;;;;;;;;;4980158;28;20303;-79
2020/12/11 14:59:05;;;;;;;34.40;21.60;;;;;;;;;;4980292;28;20245;-79
2020/12/11 15:01:33;;;;;;;33.80;21.03;;;;;;;;;;4979994;28;20184;-79
2020/12/11 15:03:59;;;;;;;36.03;21.50;;;;;;;;;;4977531;28;20173;-79
2020/12/11 15:06:26;;;;;;;34.43;21.13;;;;;;;;;;4978676;28;20207;-79
2020/12/11 15:08:52;;;;;;;32.27;21.27;;;;;;;;;;4979153;28;20184;-79
2020/12/11 15:11:20;;;;;;;37.23;21.33;;;;;;;;;;4978898;28;20181;-78
2020/12/11 15:13:46;;;;;;;35.53;21.57;;;;;;;;;;4978676;28;20180;-77
2020/12/11 15:16:12;;;;;;;34.63;21.63;;;;;;;;;;4977426;28;20303;-77